首页
METAR-TAF:

METAR-TAF

机场 :

水牛城, 紐約州, 美国

纬度: 42-56-27N, 经度: 078-44-09W, 海拔: 220米

当前天气观测

该预报发布于42分钟前的08:54 UTC
风速7节,风向西
温度 -8°C
湿度 79%
气压 1025 hPa
能見度: 16.1公里
少量云层高于2000英尺
散云层高于3000英尺

METAR: KBUF 130854Z 28007KT 10SM FEW020 SCT030 M08/M11 A3027 RMK AO2 SLP263 T10781111 53011

时间: 04:36 (09:36 UTC)

预报

该预报发布于27分钟前的09:09 UTC
预报有效从13日的 09点(UTC)到 14日的 06点(UTC)
风速7节,风向西
能見度: 10公里
少量云层高于2000英尺
多云层高于3000英尺
小阵雪
从 13日的 1300点(UTC)
风速节,风向
能見度: 10公里
多云层高于4000英尺
从 13日的 1700点(UTC)
风速3节,风向多变
能見度: 10公里
散云层高于15000英尺
从 13日的 1900点(UTC)
风速4节,风向南转西南
能見度: 10公里
多云层高于20000英尺
从 13日的 2300点(UTC)
风速5节,风向东南
能見度: 10公里
阴天层高于8000英尺

TAF: KBUF 130909Z 1309/1406 28007KT P6SM -SHSN FEW020 BKN030 FM131300 00000KT P6SM BKN040 FM131700 VRB03KT P6SM SCT150 FM131900 21004KT P6SM BKN200 FM132300 14005KT P6SM OVC080

超过4000个机场的气象观测和天气预报(METAR&TAF报告)。

可查询的气象台以黄色和红色小点在地图上表示。

将鼠标移到小点上方,可查看气象台名称。

然后点击查看天气观测和预报。

如需切换地图:点击带黑十字的绿色按钮放大地图;点击带横线的绿色按钮缩小地图;或者点击绿色箭头查看邻近地区的地图。


METAR-TAF: